createdAt,value
2023-01-31T00:00:28.290Z,6.90
2023-01-31T00:03:15.563Z,6.80
2023-01-31T00:06:14.710Z,6.60
2023-01-31T00:09:05.455Z,6.40
2023-01-31T00:11:53.279Z,6.40
2023-01-31T00:14:40.681Z,6.40
2023-01-31T00:17:27.972Z,6.40
2023-01-31T00:20:15.517Z,6.40
2023-01-31T00:23:02.956Z,6.30
2023-01-31T00:25:50.177Z,6.40
2023-01-31T00:28:37.824Z,6.30
2023-01-31T00:31:27.681Z,6.20
2023-01-31T00:34:14.791Z,6.20
2023-01-31T00:37:01.952Z,6.10
2023-01-31T00:39:49.533Z,6.20
2023-01-31T00:42:36.937Z,6.30
2023-01-31T00:45:23.862Z,6.30
2023-01-31T00:48:11.356Z,6.30
2023-01-31T00:50:58.731Z,6.30
2023-01-31T00:53:46.552Z,6.20
2023-01-31T00:56:34.627Z,6.10
2023-01-31T00:59:25.065Z,6.10
2023-01-31T01:02:13.504Z,6.10
2023-01-31T01:05:00.781Z,6.10
2023-01-31T01:07:48.734Z,6.00
2023-01-31T01:10:36.638Z,6.10
2023-01-31T01:13:23.757Z,5.90
2023-01-31T01:16:13.513Z,5.90
2023-01-31T01:19:02.065Z,5.80
2023-01-31T01:21:49.594Z,5.70
2023-01-31T01:24:36.937Z,5.60
2023-01-31T01:27:24.056Z,5.60
2023-01-31T01:30:12.238Z,5.60
2023-01-31T01:32:59.670Z,5.70
2023-01-31T01:35:46.671Z,5.70
2023-01-31T01:38:37.906Z,5.80
2023-01-31T01:41:25.331Z,5.90
2023-01-31T01:44:44.485Z,5.80
2023-01-31T01:47:34.841Z,5.60
2023-01-31T01:50:31.297Z,5.60
2023-01-31T01:53:21.605Z,5.50
2023-01-31T01:56:14.566Z,5.40
2023-01-31T01:59:16.938Z,5.40
2023-01-31T02:02:05.341Z,5.40
2023-01-31T02:04:53.678Z,5.30
2023-01-31T02:07:41.884Z,5.30
2023-01-31T02:10:35.094Z,5.10
2023-01-31T02:13:22.934Z,5.20
2023-01-31T02:16:10.925Z,5.00
2023-01-31T02:18:59.774Z,4.90
2023-01-31T02:24:23.944Z,4.90
2023-01-31T02:27:23.277Z,4.80
2023-01-31T02:30:39.014Z,4.70
2023-01-31T02:33:35.200Z,4.70
2023-01-31T02:36:31.188Z,4.60
2023-01-31T02:39:27.388Z,4.60
2023-01-31T02:42:35.817Z,4.60
2023-01-31T02:45:34.270Z,4.60
2023-01-31T02:48:35.987Z,4.60
2023-01-31T02:51:32.086Z,4.60
2023-01-31T02:54:26.627Z,4.60
2023-01-31T02:57:13.808Z,4.60
2023-01-31T03:00:01.859Z,4.60
2023-01-31T03:02:49.011Z,4.60
2023-01-31T03:05:36.604Z,4.50
2023-01-31T03:08:23.448Z,4.40
2023-01-31T03:11:11.340Z,4.30
2023-01-31T03:14:13.372Z,4.40
2023-01-31T03:17:26.825Z,4.30
2023-01-31T03:20:22.959Z,4.30
2023-01-31T03:23:13.221Z,4.30
2023-01-31T03:26:01.802Z,4.40
2023-01-31T03:28:52.073Z,4.40
2023-01-31T03:31:45.331Z,4.40
2023-01-31T03:34:33.053Z,4.40
2023-01-31T03:37:46.945Z,4.30
2023-01-31T03:40:39.552Z,4.30
2023-01-31T03:43:29.853Z,4.30
2023-01-31T03:46:22.418Z,4.40
2023-01-31T03:49:11.947Z,4.30
2023-01-31T03:52:08.607Z,4.30
2023-01-31T03:55:01.966Z,4.20
2023-01-31T03:57:52.599Z,4.10
2023-01-31T04:00:42.592Z,4.00
2023-01-31T04:03:38.651Z,3.90
2023-01-31T04:06:25.945Z,3.80
2023-01-31T04:09:13.381Z,3.90
2023-01-31T04:12:04.131Z,3.90
2023-01-31T04:14:51.123Z,3.90
2023-01-31T04:17:38.809Z,3.90
2023-01-31T04:20:26.397Z,3.90
2023-01-31T04:23:13.364Z,3.90
2023-01-31T04:26:00.369Z,3.90
2023-01-31T04:28:47.427Z,3.80
2023-01-31T04:31:34.503Z,3.80
2023-01-31T04:34:21.746Z,3.80
2023-01-31T04:37:09.133Z,3.80
2023-01-31T04:39:56.245Z,3.80
2023-01-31T04:42:43.675Z,3.70
2023-01-31T04:45:31.698Z,3.70
2023-01-31T04:48:18.975Z,3.60
2023-01-31T04:51:06.489Z,3.60
2023-01-31T04:53:53.620Z,3.50
2023-01-31T04:56:40.938Z,3.40
2023-01-31T04:59:28.009Z,3.40
2023-01-31T05:02:15.236Z,3.40
2023-01-31T05:05:02.750Z,3.40
2023-01-31T05:07:50.043Z,3.50
2023-01-31T05:10:37.277Z,3.50
2023-01-31T05:13:25.459Z,3.40
2023-01-31T05:16:13.333Z,3.50
2023-01-31T05:19:00.538Z,3.40
2023-01-31T05:21:58.298Z,3.40
2023-01-31T05:24:45.382Z,3.40
2023-01-31T05:27:32.427Z,3.40
2023-01-31T05:30:19.936Z,3.40
2023-01-31T05:33:07.123Z,3.50
2023-01-31T05:35:54.554Z,3.40
2023-01-31T05:38:41.589Z,3.50
2023-01-31T05:41:28.652Z,3.50
2023-01-31T05:44:16.413Z,3.40
2023-01-31T05:47:03.914Z,3.40
2023-01-31T05:49:51.094Z,3.40
2023-01-31T05:52:38.388Z,3.30
2023-01-31T05:55:25.982Z,3.20
2023-01-31T05:58:13.213Z,3.10
2023-01-31T06:01:01.041Z,3.10
2023-01-31T06:03:48.578Z,3.10
2023-01-31T06:06:35.909Z,3.00
2023-01-31T06:09:23.324Z,2.90
2023-01-31T06:12:16.146Z,2.70
2023-01-31T06:15:03.981Z,2.60
2023-01-31T06:17:51.003Z,2.60
2023-01-31T06:20:38.860Z,2.60
2023-01-31T06:23:26.383Z,2.50
2023-01-31T06:26:14.427Z,2.60
2023-01-31T06:29:01.660Z,2.60
2023-01-31T06:31:49.155Z,2.60
2023-01-31T06:34:36.106Z,2.60
2023-01-31T06:37:23.503Z,2.60
2023-01-31T06:40:12.713Z,2.50
2023-01-31T06:43:00.440Z,2.50
2023-01-31T06:45:49.333Z,2.70
2023-01-31T06:48:36.792Z,2.80
2023-01-31T06:51:23.867Z,2.90
2023-01-31T06:54:11.327Z,2.90
2023-01-31T06:56:58.499Z,3.10
2023-01-31T06:59:45.509Z,3.20
2023-01-31T07:02:32.805Z,3.20
2023-01-31T07:05:21.194Z,3.30
2023-01-31T07:08:08.569Z,3.30
2023-01-31T07:10:55.608Z,3.30
2023-01-31T07:13:42.376Z,3.30
2023-01-31T07:16:30.436Z,3.40
2023-01-31T07:19:17.845Z,3.30
2023-01-31T07:22:05.279Z,3.30
2023-01-31T07:24:52.783Z,3.20
2023-01-31T07:27:39.904Z,3.30
2023-01-31T07:30:27.148Z,3.40
2023-01-31T07:33:14.821Z,3.50
2023-01-31T07:36:06.472Z,3.70
2023-01-31T07:38:58.295Z,3.90
2023-01-31T07:41:45.902Z,4.10
2023-01-31T07:44:33.209Z,4.30
2023-01-31T07:47:20.292Z,4.40
2023-01-31T07:50:07.730Z,4.50
2023-01-31T07:52:55.032Z,4.60
2023-01-31T07:55:42.421Z,4.60
2023-01-31T07:58:30.012Z,4.50
2023-01-31T08:01:38.229Z,4.50
2023-01-31T08:04:25.570Z,4.40
2023-01-31T08:07:13.930Z,4.40
2023-01-31T08:10:00.921Z,4.30
2023-01-31T08:12:50.122Z,4.40
2023-01-31T08:15:36.923Z,4.60
2023-01-31T08:18:25.132Z,4.60
2023-01-31T08:21:14.293Z,4.50
2023-01-31T08:24:02.526Z,4.50
2023-01-31T08:26:49.546Z,4.50
2023-01-31T08:29:36.711Z,4.40
2023-01-31T08:32:23.758Z,4.40
2023-01-31T08:35:11.128Z,4.40
2023-01-31T08:38:10.419Z,4.30
2023-01-31T08:40:46.730Z,4.30
2023-01-31T08:43:42.610Z,4.20
2023-01-31T08:46:23.742Z,4.30
2023-01-31T08:49:11.398Z,4.30
2023-01-31T08:51:58.848Z,4.30
2023-01-31T08:54:46.168Z,4.40
2023-01-31T08:57:33.611Z,4.40
2023-01-31T09:00:21.932Z,4.60
2023-01-31T09:03:10.510Z,4.60
2023-01-31T09:06:00.180Z,4.60
2023-01-31T09:08:47.720Z,4.70
2023-01-31T09:11:35.924Z,4.80
2023-01-31T09:14:23.172Z,4.80
2023-01-31T09:17:10.773Z,4.80
2023-01-31T09:19:58.826Z,4.80
2023-01-31T09:22:46.494Z,5.00
2023-01-31T09:25:45.736Z,5.10
2023-01-31T09:28:24.741Z,5.20
2023-01-31T09:31:17.279Z,5.30
2023-01-31T09:34:04.561Z,5.30
2023-01-31T09:36:51.799Z,5.30
2023-01-31T09:39:38.792Z,5.00
2023-01-31T09:42:32.041Z,4.90
2023-01-31T09:45:34.695Z,4.80
2023-01-31T09:48:25.471Z,4.70
2023-01-31T09:51:15.212Z,4.80
2023-01-31T09:54:05.243Z,4.60
2023-01-31T09:57:20.574Z,4.70
2023-01-31T10:00:26.362Z,4.60
2023-01-31T10:03:25.771Z,4.70
2023-01-31T10:06:41.297Z,4.80
2023-01-31T10:09:33.005Z,4.70
2023-01-31T10:12:29.362Z,4.80
2023-01-31T10:15:32.825Z,4.90
2023-01-31T10:18:29.275Z,5.00
2023-01-31T10:21:23.094Z,4.80
2023-01-31T10:24:31.970Z,4.90
2023-01-31T10:27:29.028Z,5.00
2023-01-31T10:30:20.803Z,5.00
2023-01-31T10:33:26.159Z,5.00
2023-01-31T10:36:16.429Z,4.80
2023-01-31T10:39:18.001Z,4.70
2023-01-31T10:42:24.480Z,4.70
2023-01-31T10:45:20.744Z,4.60
2023-01-31T10:48:24.061Z,4.70
2023-01-31T10:51:31.074Z,4.70
2023-01-31T10:54:36.075Z,4.70
2023-01-31T10:57:24.194Z,4.70
2023-01-31T11:00:20.432Z,4.60
2023-01-31T11:03:07.979Z,4.70
2023-01-31T11:06:00.429Z,4.70
2023-01-31T11:08:50.105Z,4.80
2023-01-31T11:11:40.399Z,4.80
2023-01-31T11:14:29.468Z,4.80
2023-01-31T11:17:19.412Z,4.90
2023-01-31T11:20:07.354Z,5.00
2023-01-31T11:22:56.076Z,5.00
2023-01-31T11:25:51.651Z,5.00
2023-01-31T11:28:42.574Z,5.00
2023-01-31T11:31:32.909Z,5.10
2023-01-31T11:34:25.178Z,5.20
2023-01-31T11:37:18.127Z,5.30
2023-01-31T11:40:19.712Z,5.30
2023-01-31T11:43:09.713Z,5.30
2023-01-31T11:46:01.873Z,5.30
2023-01-31T11:48:48.875Z,5.30
2023-01-31T11:51:36.324Z,5.50
2023-01-31T11:54:27.172Z,5.60
2023-01-31T11:57:19.982Z,5.50
2023-01-31T12:00:24.929Z,5.60
2023-01-31T12:03:18.060Z,5.50
2023-01-31T12:06:07.713Z,5.50
2023-01-31T12:08:56.649Z,5.50
2023-01-31T12:11:52.597Z,5.50
2023-01-31T12:14:42.132Z,5.50
2023-01-31T12:17:32.160Z,5.50
2023-01-31T12:20:28.390Z,5.50
2023-01-31T12:23:28.772Z,5.60
2023-01-31T12:26:35.912Z,5.60
2023-01-31T12:29:28.968Z,5.60
2023-01-31T12:32:35.281Z,5.60
2023-01-31T12:35:25.911Z,5.70
2023-01-31T12:38:33.954Z,5.80
2023-01-31T12:41:24.081Z,5.90
2023-01-31T12:44:43.321Z,6.10
2023-01-31T12:47:36.989Z,6.10
2023-01-31T12:51:00.569Z,6.00
2023-01-31T12:54:16.836Z,6.00
2023-01-31T12:57:25.206Z,5.90
2023-01-31T13:00:30.496Z,5.90
2023-01-31T13:03:41.680Z,6.00
2023-01-31T13:06:34.823Z,6.00
2023-01-31T13:09:27.222Z,6.00
2023-01-31T13:12:22.110Z,5.90
2023-01-31T13:15:18.091Z,6.00
2023-01-31T13:18:06.866Z,5.90
2023-01-31T13:20:57.005Z,5.90
2023-01-31T13:23:50.279Z,6.00
2023-01-31T13:26:49.276Z,6.10
2023-01-31T13:29:48.183Z,6.20
2023-01-31T13:32:44.043Z,6.10
2023-01-31T13:35:42.564Z,6.10
2023-01-31T13:38:32.830Z,6.30
2023-01-31T13:41:28.664Z,6.20
2023-01-31T13:44:17.309Z,6.30
2023-01-31T13:47:07.760Z,6.20
2023-01-31T13:49:57.873Z,6.30
2023-01-31T13:52:52.664Z,6.20
2023-01-31T13:55:43.166Z,6.30
2023-01-31T13:58:34.394Z,6.20
2023-01-31T14:01:23.887Z,6.20
2023-01-31T14:04:17.503Z,6.30
2023-01-31T14:07:08.137Z,6.50
2023-01-31T14:10:01.179Z,6.50
2023-01-31T14:12:48.708Z,6.60
2023-01-31T14:15:51.007Z,6.40
2023-01-31T14:18:43.204Z,6.30
2023-01-31T14:21:33.754Z,6.20
2023-01-31T14:24:24.497Z,6.30
2023-01-31T14:27:25.601Z,6.40
2023-01-31T14:30:24.595Z,6.40
2023-01-31T14:33:23.725Z,6.30
2023-01-31T14:36:33.349Z,6.20
2023-01-31T14:39:28.611Z,6.40
2023-01-31T14:42:42.085Z,6.40
2023-01-31T14:46:05.568Z,6.30
2023-01-31T14:49:07.811Z,6.30
2023-01-31T14:52:17.759Z,6.30
2023-01-31T14:55:23.634Z,6.20
2023-01-31T14:58:16.551Z,6.10
2023-01-31T15:01:06.997Z,6.10
2023-01-31T15:04:00.050Z,6.10
2023-01-31T15:06:49.944Z,6.10
2023-01-31T15:09:40.132Z,6.10
2023-01-31T15:12:53.191Z,6.00
2023-01-31T15:15:41.070Z,6.00
2023-01-31T15:18:29.687Z,6.00
2023-01-31T15:21:19.981Z,6.00
2023-01-31T15:24:09.713Z,6.00
2023-01-31T15:26:58.557Z,6.20
2023-01-31T15:30:00.837Z,6.20
2023-01-31T15:32:53.973Z,6.10
2023-01-31T15:35:52.855Z,6.10
2023-01-31T15:38:46.146Z,6.10
2023-01-31T15:41:44.766Z,6.10
2023-01-31T15:44:32.041Z,6.20
2023-01-31T15:47:23.884Z,6.20
2023-01-31T15:50:22.734Z,6.30
2023-01-31T15:53:15.569Z,6.40
2023-01-31T15:56:04.306Z,6.40
2023-01-31T15:58:54.898Z,6.40
2023-01-31T16:01:50.968Z,6.30
2023-01-31T16:04:40.970Z,6.30
2023-01-31T16:07:31.555Z,6.30
2023-01-31T16:10:19.114Z,6.40
2023-01-31T16:13:07.530Z,6.50
2023-01-31T16:15:55.229Z,6.40
2023-01-31T16:18:51.513Z,6.40
2023-01-31T16:21:42.078Z,6.50
2023-01-31T16:24:29.139Z,6.50
2023-01-31T16:27:17.787Z,6.50
2023-01-31T16:30:05.375Z,6.60
2023-01-31T16:32:52.385Z,6.70
2023-01-31T16:35:39.460Z,6.60
2023-01-31T16:38:28.050Z,6.60
2023-01-31T16:41:15.921Z,6.60
2023-01-31T16:44:03.763Z,6.70
2023-01-31T16:46:52.343Z,6.70
2023-01-31T16:49:39.357Z,6.70
2023-01-31T16:52:29.228Z,6.60
2023-01-31T16:55:22.011Z,6.60
2023-01-31T16:58:13.451Z,6.70
2023-01-31T17:01:15.962Z,6.80
2023-01-31T17:04:11.828Z,6.60
2023-01-31T17:07:09.145Z,6.70
2023-01-31T17:09:59.803Z,6.70
2023-01-31T17:12:47.066Z,6.60
2023-01-31T17:15:35.472Z,6.70
2023-01-31T17:18:23.068Z,6.70
2023-01-31T17:21:11.275Z,6.80
2023-01-31T17:23:59.130Z,6.80
2023-01-31T17:26:46.493Z,6.70
2023-01-31T17:29:33.513Z,6.80
2023-01-31T17:32:22.582Z,6.70
2023-01-31T17:35:32.450Z,6.70
2023-01-31T17:38:19.715Z,6.70
2023-01-31T17:41:06.972Z,6.80
2023-01-31T17:43:54.193Z,6.80
2023-01-31T17:46:41.511Z,6.80
2023-01-31T17:49:29.080Z,6.80
2023-01-31T17:52:16.501Z,6.80
2023-01-31T17:55:03.737Z,6.80
2023-01-31T17:57:51.638Z,6.80
2023-01-31T18:00:39.150Z,6.80
2023-01-31T18:03:27.296Z,6.90
2023-01-31T18:06:14.300Z,7.00
2023-01-31T18:09:08.468Z,7.20
2023-01-31T18:11:55.475Z,7.20
2023-01-31T18:14:42.541Z,7.10
2023-01-31T18:17:29.801Z,7.10
2023-01-31T18:20:19.109Z,7.20
2023-01-31T18:23:07.000Z,7.20
2023-01-31T18:25:54.152Z,7.20
2023-01-31T18:28:41.110Z,7.30
2023-01-31T18:31:28.356Z,7.40
2023-01-31T18:34:15.542Z,7.40
2023-01-31T18:37:06.478Z,7.30
2023-01-31T18:39:54.357Z,7.40
2023-01-31T18:42:41.543Z,7.20
2023-01-31T18:45:28.463Z,7.20
2023-01-31T18:48:16.422Z,7.20
2023-01-31T18:51:07.537Z,7.30
2023-01-31T18:53:55.242Z,7.30
2023-01-31T18:56:43.393Z,7.50
2023-01-31T18:59:30.717Z,7.60
2023-01-31T19:02:17.816Z,7.60
2023-01-31T19:05:05.370Z,7.60
2023-01-31T19:07:52.424Z,7.60
2023-01-31T19:10:39.679Z,7.70
2023-01-31T19:13:27.523Z,7.70
2023-01-31T19:16:20.528Z,7.60
2023-01-31T19:19:08.960Z,7.70
2023-01-31T19:21:56.190Z,7.60
2023-01-31T19:24:43.310Z,7.50
2023-01-31T19:27:30.480Z,7.60
2023-01-31T19:30:17.914Z,7.80
2023-01-31T19:33:04.963Z,7.70
2023-01-31T19:35:53.171Z,7.60
2023-01-31T19:38:41.367Z,7.50
2023-01-31T19:41:29.328Z,7.50
2023-01-31T19:44:16.460Z,7.60
2023-01-31T19:47:03.834Z,7.70
2023-01-31T19:49:51.062Z,7.70
2023-01-31T19:52:38.276Z,7.80
2023-01-31T19:55:25.248Z,7.80
2023-01-31T19:58:12.617Z,7.80
2023-01-31T20:01:01.821Z,7.90
2023-01-31T20:03:50.043Z,8.00
2023-01-31T20:06:37.087Z,7.90
2023-01-31T20:09:24.317Z,7.80
2023-01-31T20:12:12.260Z,7.70
2023-01-31T20:14:59.318Z,7.50
2023-01-31T20:17:46.458Z,7.40
2023-01-31T20:20:33.520Z,7.50
2023-01-31T20:23:21.239Z,7.60
2023-01-31T20:26:08.530Z,7.60
2023-01-31T20:28:55.850Z,7.70
2023-01-31T20:31:43.289Z,7.70
2023-01-31T20:34:30.493Z,7.60
2023-01-31T20:37:17.741Z,7.50
2023-01-31T20:40:05.214Z,7.40
2023-01-31T20:42:52.386Z,7.40
2023-01-31T20:45:39.810Z,7.20
2023-01-31T20:48:27.179Z,7.20
2023-01-31T20:51:14.476Z,7.20
2023-01-31T20:54:02.811Z,7.20
2023-01-31T20:56:51.882Z,7.10
2023-01-31T20:59:39.805Z,7.20
2023-01-31T21:02:26.895Z,7.20
2023-01-31T21:05:14.345Z,7.40
2023-01-31T21:08:01.643Z,7.50
2023-01-31T21:10:52.836Z,7.70
2023-01-31T21:13:41.884Z,7.80
2023-01-31T21:16:29.445Z,7.80
2023-01-31T21:19:17.165Z,7.90
2023-01-31T21:22:04.110Z,8.00
2023-01-31T21:24:51.306Z,7.80
2023-01-31T21:27:38.320Z,7.50
2023-01-31T21:30:25.590Z,7.60
2023-01-31T21:33:12.665Z,7.50
2023-01-31T21:36:00.468Z,7.50
2023-01-31T21:38:48.149Z,7.50
2023-01-31T21:41:53.269Z,7.30
2023-01-31T21:44:40.199Z,7.30
2023-01-31T21:47:28.993Z,7.30
2023-01-31T21:50:16.388Z,7.40
2023-01-31T21:53:03.969Z,7.30
2023-01-31T21:55:51.261Z,7.30
2023-01-31T21:58:39.565Z,7.20
2023-01-31T22:01:32.456Z,7.30
2023-01-31T22:04:23.264Z,7.30
2023-01-31T22:07:10.653Z,7.40
2023-01-31T22:09:57.928Z,7.20
2023-01-31T22:12:45.303Z,7.30
2023-01-31T22:15:32.806Z,7.20
2023-01-31T22:18:20.241Z,7.10
2023-01-31T22:21:13.503Z,7.10
2023-01-31T22:24:02.142Z,7.20
2023-01-31T22:26:49.146Z,7.20
2023-01-31T22:29:36.198Z,7.10
2023-01-31T22:32:23.612Z,7.00
2023-01-31T22:35:10.905Z,7.10
2023-01-31T22:37:57.844Z,7.10
2023-01-31T22:40:45.728Z,7.10
2023-01-31T22:43:34.672Z,6.90
2023-01-31T22:46:24.606Z,7.20
2023-01-31T22:49:11.710Z,7.10
2023-01-31T22:51:58.972Z,7.00
2023-01-31T22:54:46.265Z,7.00
2023-01-31T22:57:33.730Z,7.00
2023-01-31T23:00:21.358Z,7.20
2023-01-31T23:03:09.345Z,7.20
2023-01-31T23:05:56.579Z,7.10
2023-01-31T23:08:44.283Z,7.10
2023-01-31T23:11:31.719Z,7.20
2023-01-31T23:14:19.952Z,7.40
2023-01-31T23:17:24.550Z,7.40
2023-01-31T23:20:14.444Z,7.30
2023-01-31T23:23:01.508Z,7.10
2023-01-31T23:25:48.892Z,6.90
2023-01-31T23:28:36.353Z,6.90
2023-01-31T23:31:23.501Z,6.90
2023-01-31T23:34:10.410Z,7.00
2023-01-31T23:36:57.607Z,7.00
2023-01-31T23:39:44.782Z,7.00
2023-01-31T23:42:32.220Z,7.00
2023-01-31T23:45:19.562Z,6.90
2023-01-31T23:48:06.929Z,6.90
2023-01-31T23:50:53.944Z,7.00
2023-01-31T23:53:41.364Z,7.10
2023-01-31T23:56:28.541Z,7.10
2023-01-31T23:59:15.499Z,7.00
